Leyendecker II PSRC

2021-06-24 19:10:00

  • imperial
Date Time Air Temperature Relative Humidity Dewpoint Windchill Heat Index Wind Speed Wind Dir. Rain Solar Radiation Soil Temperature
2m 2m 3m 3m 10cm
US/Mountain F % F F F MPH deg in MJ/m^2 F
max avg avg
2021-06-23 19:25:00 92.6 21.2 47.2 92.6 92.6 3.0 3.0 1.4 198.6 211.4 0.00 0.0413766 81.7
2021-06-23 19:30:00 92.3 22.4 48.5 92.3 92.3 4.0 4.7 2.3 294.2 233.1 0.00 0.0304379 81.7
2021-06-23 19:35:00 91.9 22.4 48.1 91.9 91.9 2.4 3.8 2.8 245.3 231.9 0.00 0.0273152 81.7
2021-06-23 19:40:00 91.4 23.5 49.0 91.4 91.4 1.7 3.8 2.4 171.9 233.3 0.00 0.0182304 81.7
2021-06-23 19:45:00 90.0 26.5 51.0 90.0 90.0 1.5 2.2 1.7 278.4 227.2 0.00 0.0102963 81.6
2021-06-23 19:50:00 89.7 24.9 49.2 89.7 89.7 1.7 4.0 2.4 203.2 247.8 0.00 0.0147755 81.6
2021-06-23 19:55:00 89.1 27.1 50.9 89.1 89.1 1.0 1.5 0.6 249.2 212.6 0.00 0.0068968 81.6
2021-06-23 20:00:00 87.8 29.3 51.9 87.8 87.8 0.0 1.0 0.2 40.6 247.0 0.00 0.0039112 81.6
2021-06-23 20:05:00 86.9 29.6 51.4 86.9 86.9 1.3 1.9 1.2 226.6 204.9 0.00 0.0026943 81.6
2021-06-23 20:10:00 86.0 32.7 53.3 86.0 86.0 0.8 1.5 1.1 110.4 178.6 0.00 0.0011965 81.6
2021-06-23 20:15:00 85.2 33.9 53.5 85.2 85.2 0.8 1.9 1.0 168.4 168.2 0.00 0.0002790 81.6
2021-06-23 20:20:00 84.4 35.4 54.0 84.4 84.4 0.0 0.0 0.0 149.8 0.0 0.00 0.0000000 81.6
2021-06-23 20:25:00 83.5 36.2 53.9 83.5 83.5 1.2 1.2 0.2 110.7 108.6 0.00 0.0000000 81.5
2021-06-23 20:30:00 83.0 36.3 53.6 83.0 83.0 0.0 1.5 0.3 103.8 93.2 0.00 0.0000000 81.5
2021-06-23 20:35:00 82.3 38.6 54.7 82.3 82.3 1.3 1.3 0.9 120.6 145.0 0.00 0.0000000 81.5
2021-06-23 20:40:00 81.9 39.8 55.1 81.9 81.9 1.7 1.7 1.3 133.2 145.5 0.00 0.0000000 81.5
2021-06-23 20:45:00 81.1 42.1 55.9 81.1 81.0 1.7 1.9 1.7 151.2 145.2 0.00 0.0000000 81.5
2021-06-23 20:50:00 80.6 44.1 56.7 80.6 80.7 1.2 1.9 1.6 166.3 161.8 0.00 0.0000000 81.4
2021-06-23 20:55:00 80.1 45.1 56.9 80.1 80.4 0.0 1.2 0.2 215.0 166.9 0.00 0.0000000 81.4
2021-06-23 21:00:00 79.5 45.2 56.4 79.5 79.5 0.0 0.0 0.0 174.5 0.0 0.00 0.0000000 81.4
2021-06-23 21:05:00 78.9 45.8 56.2 78.9 78.9 0.0 0.8 0.0 284.1 269.8 0.00 0.0000000 81.4
2021-06-23 21:10:00 78.5 41.7 53.3 78.5 78.5 0.0 0.0 0.0 309.8 0.0 0.00 0.0000000 81.4
2021-06-23 21:15:00 79.2 36.2 50.1 79.2 79.2 2.6 4.4 2.2 289.5 282.0 0.00 0.0000000 81.3
2021-06-23 21:20:00 81.3 30.6 47.4 81.3 81.3 3.1 3.1 2.3 192.0 251.0 0.00 0.0000180 81.3
2021-06-23 21:25:00 83.6 28.4 47.4 83.6 83.6 2.6 4.6 2.3 218.6 235.8 0.00 0.0000733 81.3
2021-06-23 21:30:00 84.7 28.2 48.2 84.7 84.7 1.3 3.7 2.2 261.2 235.4 0.00 0.0000005 81.2
2021-06-23 21:35:00 84.3 27.8 47.5 84.3 84.3 2.2 2.6 1.9 278.7 270.9 0.00 0.0000000 81.2
2021-06-23 21:40:00 84.8 30.0 50.0 84.8 84.8 2.1 3.5 2.2 258.1 252.2 0.00 0.0000325 81.2
2021-06-23 21:45:00 84.8 32.1 51.8 84.8 84.8 2.8 3.5 2.2 298.6 265.4 0.00 0.0000020 81.2
2021-06-23 21:50:00 83.4 30.5 49.1 83.4 83.4 2.8 3.7 2.5 213.2 279.2 0.00 0.0000000 81.2
2021-06-23 21:55:00 85.6 26.5 47.3 85.6 85.6 3.7 5.1 3.3 261.0 219.8 0.00 0.0000000 81.1
2021-06-23 22:00:00 86.8 25.4 47.2 86.8 86.8 4.7 5.3 3.8 242.1 250.1 0.00 0.0000000 81.1
2021-06-23 22:05:00 87.6 24.9 47.3 87.6 87.6 3.3 8.3 5.1 294.2 260.1 0.00 0.0000000 81.1
2021-06-23 22:10:00 88.3 25.2 48.2 88.3 88.3 4.6 9.0 6.0 287.1 261.6 0.00 0.0000000 81.1
2021-06-23 22:15:00 88.8 24.5 47.9 88.8 88.8 6.3 11.5 5.9 250.9 253.4 0.00 0.0000000 81.0
2021-06-23 22:20:00 88.7 24.5 47.8 88.7 88.7 11.0 12.2 6.9 282.6 253.9 0.00 0.0000000 81.0
2021-06-23 22:25:00 88.6 24.7 48.0 88.6 88.6 5.5 11.5 8.0 276.4 257.8 0.00 0.0000000 81.0
2021-06-23 22:30:00 88.2 25.0 48.0 88.2 88.2 11.5 11.5 7.1 269.2 258.4 0.00 0.0000000 81.0
2021-06-23 22:35:00 88.0 25.9 48.7 88.0 88.0 6.7 9.0 6.6 273.0 267.6 0.00 0.0000000 81.0
2021-06-23 22:40:00 87.5 26.0 48.4 87.5 87.5 6.7 11.3 6.3 290.4 268.0 0.00 0.0000000 80.9
2021-06-23 22:45:00 87.5 26.5 48.9 87.5 87.5 6.7 13.5 8.6 314.7 268.0 0.00 0.0000000 80.9
2021-06-23 22:50:00 87.2 27.4 49.5 87.2 87.2 9.0 12.2 7.7 240.5 263.6 0.00 0.0000000 80.9
2021-06-23 22:55:00 86.9 27.7 49.6 86.9 86.9 7.2 15.8 10.1 255.7 261.1 0.00 0.0000000 80.9
2021-06-23 23:00:00 86.4 28.3 49.7 86.4 86.4 9.6 15.1 8.3 211.7 266.9 0.00 0.0000000 80.8
2021-06-23 23:05:00 86.1 28.4 49.6 86.1 86.1 10.3 13.9 9.0 257.2 261.3 0.00 0.0000000 80.8
2021-06-23 23:10:00 85.8 28.2 49.2 85.8 85.8 12.2 14.9 8.9 251.8 263.2 0.00 0.0000000 80.8
2021-06-23 23:15:00 85.8 28.2 49.1 85.8 85.8 8.8 11.5 8.5 269.4 272.3 0.00 0.0000000 80.7
2021-06-23 23:20:00 85.9 28.0 49.0 85.9 85.9 9.0 13.0 8.7 271.0 265.4 0.00 0.0000000 80.7
2021-06-23 23:25:00 85.6 28.0 48.8 85.6 85.6 11.5 13.1 7.5 297.1 274.0 0.00 0.0000000 80.7
2021-06-23 23:30:00 85.6 27.8 48.6 85.6 85.6 5.1 10.6 7.4 292.6 271.9 0.00 0.0000000 80.7
2021-06-23 23:35:00 85.8 27.5 48.5 85.8 85.8 8.0 11.2 7.6 274.9 274.3 0.00 0.0000000 80.6
2021-06-23 23:40:00 86.1 26.9 48.1 86.1 86.1 6.7 15.5 8.9 324.0 276.3 0.00 0.0000000 80.6
2021-06-23 23:45:00 86.3 26.7 48.1 86.3 86.3 5.8 12.4 7.5 293.6 283.3 0.00 0.0000000 80.6
2021-06-23 23:50:00 86.3 26.6 48.0 86.3 86.3 7.8 11.9 8.4 276.1 278.2 0.00 0.0000000 80.6
2021-06-23 23:55:00 86.4 27.2 48.7 86.4 86.4 6.2 16.2 9.7 280.8 291.2 0.00 0.0000000 80.5
2021-06-24 00:00:00 86.1 28.1 49.3 86.1 86.1 8.1 17.6 10.9 303.6 292.3 0.00 0.0000000 80.5
2021-06-24 00:05:00 85.7 28.7 49.5 85.7 85.7 11.0 15.6 10.1 294.3 294.4 0.00 0.0000000 80.5
2021-06-24 00:10:00 85.2 29.8 50.0 85.2 85.2 5.6 14.2 8.7 310.2 301.1 0.00 0.0000000 80.4
2021-06-24 00:15:00 84.8 29.0 49.1 84.8 84.8 11.7 11.7 7.7 316.5 310.8 0.00 0.0000000 80.4
2021-06-24 00:20:00 84.7 29.6 49.4 84.7 84.7 6.2 12.1 8.1 317.0 314.6 0.00 0.0000000 80.4
2021-06-24 00:25:00 84.8 29.3 49.3 84.8 84.8 11.5 14.7 9.4 323.3 324.6 0.00 0.0000000 80.4
2021-06-24 00:30:00 85.3 28.4 48.9 85.3 85.3 8.1 13.0 10.0 1.2 337.2 0.00 0.0000000 80.3
2021-06-24 00:35:00 85.3 28.7 49.1 85.3 85.3 9.7 10.8 9.0 1.9 344.2 0.00 0.0000000 80.3
2021-06-24 00:40:00 85.0 29.0 49.2 85.0 85.0 8.7 11.9 8.6 334.2 341.4 0.00 0.0000000 80.3
2021-06-24 00:45:00 84.9 29.3 49.4 84.9 84.9 8.7 15.6 9.9 328.2 331.8 0.00 0.0000000 80.3
2021-06-24 00:50:00 84.1 30.8 50.0 84.1 84.1 7.1 10.6 6.6 327.0 328.9 0.00 0.0000000 80.2
2021-06-24 00:55:00 83.8 31.3 50.2 83.8 83.8 5.8 7.1 4.8 341.1 320.3 0.00 0.0000000 80.2
2021-06-24 01:00:00 84.0 31.0 50.1 84.0 84.0 3.1 7.6 5.4 319.7 326.7 0.00 0.0000000 80.2
2021-06-24 01:05:00 83.8 31.2 50.1 83.8 83.8 2.1 5.8 3.2 189.8 239.0 0.00 0.0000000 80.2
2021-06-24 01:10:00 83.6 30.9 49.6 83.6 83.6 3.1 3.7 2.4 207.2 227.7 0.00 0.0000000 80.2
2021-06-24 01:15:00 82.8 34.1 51.7 82.8 82.8 4.6 5.1 4.1 210.3 203.3 0.00 0.0000000 80.1
2021-06-24 01:20:00 82.1 34.5 51.4 82.1 82.1 3.0 4.6 3.7 200.5 198.3 0.00 0.0000000 80.1
2021-06-24 01:25:00 81.7 36.9 52.9 81.7 81.7 1.9 3.1 2.2 26.3 161.2 0.00 0.0000000 80.1
2021-06-24 01:30:00 80.4 41.1 54.6 80.4 80.3 2.2 2.8 1.8 98.2 62.0 0.00 0.0000000 80.0
2021-06-24 01:35:00 79.5 43.4 55.3 79.5 79.5 1.5 2.4 1.5 34.8 82.6 0.00 0.0000000 80.0
2021-06-24 01:40:00 78.9 42.1 53.9 78.9 78.9 0.8 2.1 1.3 228.0 24.5 0.00 0.0000000 80.0
2021-06-24 01:45:00 78.3 44.6 55.0 78.3 78.3 1.5 2.2 1.9 315.8 244.0 0.00 0.0000000 80.0
2021-06-24 01:50:00 77.6 44.2 54.0 77.6 77.6 1.7 2.2 1.5 197.2 155.1 0.00 0.0000000 80.0
2021-06-24 01:55:00 76.8 44.0 53.3 76.8 76.8 2.1 5.3 2.2 51.7 73.5 0.00 0.0000000 79.9
2021-06-24 02:00:00 76.6 45.2 53.8 76.6 76.6 1.3 1.9 1.1 264.6 119.3 0.00 0.0000000 79.9
2021-06-24 02:05:00 76.1 46.5 54.1 76.1 76.1 1.3 1.7 1.4 34.0 357.0 0.00 0.0000000 79.9
2021-06-24 02:10:00 75.6 44.9 52.7 75.6 75.6 3.3 3.3 0.8 332.2 356.4 0.00 0.0000000 79.9
2021-06-24 02:15:00 76.0 43.5 52.2 76.0 76.0 4.0 5.6 4.0 348.3 355.0 0.00 0.0000000 79.9
2021-06-24 02:20:00 79.0 36.1 49.9 79.0 79.0 7.6 9.4 7.0 343.6 359.7 0.00 0.0000370 79.8
2021-06-24 02:25:00 80.4 34.3 49.7 80.4 80.4 6.0 8.1 6.9 334.9 349.1 0.00 0.0000000 79.8
2021-06-24 02:30:00 80.9 33.3 49.3 80.9 80.9 5.1 7.4 5.7 333.3 347.7 0.00 0.0000000 79.8
2021-06-24 02:35:00 81.1 32.9 49.1 81.1 81.1 7.4 7.4 5.7 339.0 346.4 0.00 0.0000000 79.8
2021-06-24 02:40:00 80.9 33.4 49.4 80.9 80.9 5.3 7.6 5.8 348.0 356.1 0.00 0.0000000 79.8
2021-06-24 02:45:00 81.1 32.6 49.0 81.1 81.1 7.1 9.9 7.3 336.8 348.9 0.00 0.0000000 79.7
2021-06-24 02:50:00 81.4 31.9 48.6 81.4 81.4 7.8 10.3 7.6 335.9 348.0 0.00 0.0000000 79.7
2021-06-24 02:55:00 81.2 32.2 48.7 81.2 81.2 6.3 8.8 6.8 16.9 349.0 0.00 0.0000000 79.7
2021-06-24 03:00:00 81.0 32.4 48.7 81.0 81.0 7.8 8.1 6.9 345.9 351.5 0.00 0.0000000 79.7
2021-06-24 03:05:00 80.7 32.9 48.9 80.7 80.7 6.0 8.1 6.2 345.7 351.8 0.00 0.0000000 79.7
2021-06-24 03:10:00 80.4 33.3 49.0 80.4 80.4 6.3 6.7 5.7 345.4 333.7 0.00 0.0000000 79.6
2021-06-24 03:15:00 80.3 33.4 48.8 80.3 80.3 5.3 7.4 5.4 9.2 338.9 0.00 0.0000000 79.6
2021-06-24 03:20:00 80.1 34.9 50.0 80.1 80.1 5.3 6.7 5.5 334.2 335.8 0.00 0.0000000 79.6
2021-06-24 03:25:00 79.5 34.7 49.2 79.5 79.5 6.2 7.1 5.8 323.4 323.1 0.00 0.0000000 79.6
2021-06-24 03:30:00 79.3 35.0 49.3 79.3 79.3 5.1 6.9 5.1 330.3 320.8 0.00 0.0000000 79.6
2021-06-24 03:35:00 78.9 36.0 49.6 78.9 78.9 3.0 5.5 4.0 302.0 313.9 0.00 0.0000000 79.5
2021-06-24 03:40:00 78.3 37.6 50.3 78.3 78.3 2.4 3.5 2.6 317.2 290.1 0.00 0.0000000 79.5
2021-06-24 03:45:00 77.7 38.6 50.5 77.7 77.7 2.1 3.5 2.6 259.1 273.6 0.00 0.0000000 79.5
2021-06-24 03:50:00 77.1 39.5 50.6 77.1 77.1 2.4 3.0 2.2 280.4 271.2 0.00 0.0000000 79.5
2021-06-24 03:55:00 76.4 43.3 52.4 76.4 76.4 2.2 3.7 2.2 314.9 303.7 0.00 0.0000000 79.4
2021-06-24 04:00:00 74.5 50.2 54.8 74.5 74.5 2.8 3.5 3.1 314.5 323.3 0.00 0.0000000 79.4
2021-06-24 04:05:00 73.6 51.4 54.6 73.6 73.6 1.0 3.1 2.0 310.2 311.2 0.00 0.0000000 79.4
2021-06-24 04:10:00 73.3 52.3 54.8 73.3 73.3 1.2 1.3 1.2 270.8 306.4 0.00 0.0000000 79.4
2021-06-24 04:15:00 73.5 47.3 52.3 73.5 73.5 3.3 3.5 2.3 249.7 258.2 0.00 0.0000000 79.3
2021-06-24 04:20:00 74.1 46.6 52.4 74.1 74.1 1.5 3.1 2.3 265.1 259.9 0.00 0.0000000 79.3
2021-06-24 04:25:00 74.4 45.1 51.7 74.4 74.4 1.9 2.8 1.8 316.8 291.3 0.00 0.0000000 79.3
2021-06-24 04:30:00 74.6 49.1 54.2 74.6 74.6 1.7 2.2 1.6 331.2 331.8 0.00 0.0000000 79.3
2021-06-24 04:35:00 74.1 50.6 54.6 74.1 74.1 1.3 1.7 1.2 55.0 11.6 0.00 0.0000000 79.3
2021-06-24 04:40:00 73.5 53.6 55.6 73.5 73.5 0.0 1.9 1.4 98.8 81.9 0.00 0.0000000 79.3
2021-06-24 04:45:00 73.1 51.3 54.1 73.1 73.1 1.3 1.5 0.9 243.2 240.5 0.00 0.0000000 79.3
2021-06-24 04:50:00 73.1 49.4 53.0 73.1 73.1 1.5 2.2 1.7 253.4 223.5 0.00 0.0000000 79.2
2021-06-24 04:55:00 73.3 47.0 51.9 73.3 73.3 2.8 3.1 2.3 256.7 243.3 0.00 0.0000000 79.2
2021-06-24 05:00:00 73.7 45.1 51.1 73.7 73.7 2.4 2.6 2.2 234.4 242.2 0.00 0.0000000 79.2
2021-06-24 05:05:00 73.6 46.3 51.7 73.6 73.6 3.0 3.3 2.8 259.5 254.5 0.00 0.0000000 79.2
2021-06-24 05:10:00 73.0 51.4 54.1 73.0 73.0 1.7 2.8 1.9 284.0 277.7 0.00 0.0000000 79.2
2021-06-24 05:15:00 72.3 49.1 52.2 72.3 72.3 1.9 2.8 2.0 285.4 279.3 0.00 0.0000000 79.2
2021-06-24 05:20:00 71.7 53.0 53.6 71.7 71.7 2.4 2.8 2.1 308.9 297.7 0.00 0.0000000 79.1
2021-06-24 05:25:00 71.8 55.9 55.2 71.8 71.8 3.3 3.3 2.4 335.0 314.0 0.00 0.0000000 79.1
2021-06-24 05:30:00 70.2 59.7 55.5 70.2 70.2 3.0 4.9 3.8 292.6 330.0 0.00 0.0000000 79.1
2021-06-24 05:35:00 70.3 61.8 56.6 70.3 70.3 3.0 3.8 2.8 323.2 307.0 0.00 0.0000000 79.1
2021-06-24 05:40:00 69.3 64.2 56.7 69.3 69.3 2.2 3.8 3.1 313.2 317.6 0.00 0.0000000 79.1
2021-06-24 05:45:00 70.4 47.3 49.4 70.4 70.4 3.7 3.8 2.6 247.2 269.9 0.00 0.0000000 79.1
2021-06-24 05:50:00 71.9 44.9 49.4 71.9 71.9 3.1 4.7 3.4 191.6 247.8 0.00 0.0000000 79.0
2021-06-24 05:55:00 72.2 44.5 49.4 72.2 72.2 4.2 4.4 2.9 232.1 234.0 0.00 0.0000000 79.0
2021-06-24 06:00:00 72.3 43.9 49.2 72.3 72.3 1.3 3.5 2.6 137.0 197.4 0.00 0.0001110 79.0
2021-06-24 06:05:00 71.3 52.8 53.2 71.3 71.3 3.5 7.1 4.4 114.0 105.2 0.00 0.0002345 79.0
2021-06-24 06:10:00 70.8 50.9 51.8 70.8 70.8 1.3 4.7 2.6 65.1 74.0 0.00 0.0006992 79.0
2021-06-24 06:15:00 71.0 52.8 52.9 71.0 71.0 1.7 2.2 1.4 137.3 95.1 0.00 0.0018825 79.0
2021-06-24 06:20:00 70.7 50.8 51.6 70.7 70.7 3.0 3.8 2.7 114.0 121.1 0.00 0.0033785 78.9
2021-06-24 06:25:00 70.8 51.6 52.1 70.8 70.8 3.3 3.7 2.6 200.9 149.4 0.00 0.0048417 78.9
2021-06-24 06:30:00 71.0 50.9 51.9 71.0 71.0 3.7 4.7 3.9 197.6 210.4 0.00 0.0062270 78.9
2021-06-24 06:35:00 70.4 52.3 52.0 70.4 70.4 1.9 3.7 2.5 200.4 192.5 0.00 0.0071511 78.9
2021-06-24 06:40:00 70.8 50.7 51.6 70.8 70.8 2.6 2.8 2.1 217.0 212.5 0.00 0.0087263 78.9
2021-06-24 06:45:00 70.9 51.9 52.3 70.9 70.9 2.6 3.1 2.5 230.1 228.7 0.00 0.0095640 78.8
2021-06-24 06:50:00 71.6 54.4 54.3 71.6 71.6 1.7 3.0 2.2 314.9 255.3 0.00 0.0107797 78.8
2021-06-24 06:55:00 70.8 52.0 52.4 70.8 70.8 2.1 2.8 2.2 224.1 305.8 0.00 0.0132748 78.8
2021-06-24 07:00:00 71.2 54.0 53.7 71.2 71.2 3.3 3.7 2.7 205.3 214.2 0.00 0.0135760 78.8
2021-06-24 07:05:00 71.5 47.9 50.7 71.5 71.5 2.4 3.7 2.8 249.4 214.4 0.00 0.0163885 78.7
2021-06-24 07:10:00 72.6 52.6 54.2 72.6 72.6 2.1 3.3 2.4 1.9 278.0 0.00 0.0333161 78.7
2021-06-24 07:15:00 72.9 49.5 52.9 72.9 72.9 2.1 2.4 1.9 300.7 315.2 0.00 0.0389880 78.7
2021-06-24 07:20:00 73.3 54.4 55.9 73.3 73.3 2.2 2.8 2.3 279.4 306.7 0.00 0.0520203 78.7
2021-06-24 07:25:00 73.5 54.8 56.3 73.5 73.5 1.0 2.6 2.0 226.2 251.1 0.00 0.0568999 78.7
2021-06-24 07:30:00 74.5 50.8 55.0 74.5 74.5 1.7 1.7 0.7 311.1 292.3 0.00 0.0617289 78.7
2021-06-24 07:35:00 75.4 50.0 55.4 75.4 75.4 3.5 3.7 2.7 332.3 319.2 0.00 0.0662089 78.7
2021-06-24 07:40:00 75.9 49.8 55.8 75.9 75.9 3.1 4.7 3.7 306.2 314.1 0.00 0.0710423 78.6
2021-06-24 07:45:00 76.3 49.1 55.8 76.3 76.3 4.4 4.4 3.3 280.3 303.1 0.00 0.0756510 78.6
2021-06-24 07:50:00 76.8 47.5 55.4 76.8 76.8 4.9 4.9 4.0 334.5 313.9 0.00 0.0809429 78.6
2021-06-24 07:55:00 77.5 45.6 54.8 77.5 77.5 4.6 5.5 4.5 345.7 333.5 0.00 0.0858561 78.6
2021-06-24 08:00:00 78.0 45.1 55.0 78.0 78.0 3.7 5.5 3.7 322.7 325.9 0.00 0.0906345 78.6
2021-06-24 08:05:00 78.3 44.8 55.1 78.3 78.3 3.5 4.9 4.1 343.6 324.5 0.00 0.0958172 78.6
2021-06-24 08:10:00 79.1 43.2 54.8 79.1 79.1 4.4 4.9 3.6 309.7 324.1 0.00 0.1011700 78.5
2021-06-24 08:15:00 79.4 42.9 54.9 79.4 79.4 2.6 4.9 3.2 3.2 326.6 0.00 0.1058180 78.5
2021-06-24 08:20:00 80.2 43.3 55.9 80.2 80.3 2.8 4.4 3.0 311.9 299.9 0.00 0.1103960 78.5
2021-06-24 08:25:00 80.7 45.2 57.6 80.7 81.0 3.1 4.0 2.7 262.7 276.4 0.00 0.1149722 78.5
2021-06-24 08:30:00 81.0 44.6 57.4 81.0 81.1 2.6 4.9 3.5 250.5 281.1 0.00 0.1200406 78.5
2021-06-24 08:35:00 80.8 45.5 57.8 80.8 81.0 2.6 4.9 3.7 295.9 271.8 0.00 0.1252550 78.5
2021-06-24 08:40:00 81.4 44.2 57.6 81.4 81.5 3.3 5.1 3.5 279.3 280.6 0.00 0.1307430 78.5
2021-06-24 08:45:00 81.9 39.9 55.1 81.9 81.9 4.6 6.5 4.2 296.6 283.9 0.00 0.1358490 78.5
2021-06-24 08:50:00 82.4 39.9 55.6 82.4 82.4 4.4 5.6 4.1 299.7 294.7 0.00 0.1404059 78.5
2021-06-24 08:55:00 82.8 37.2 54.0 82.8 82.8 4.4 7.8 4.7 285.6 297.5 0.00 0.1455211 78.5
2021-06-24 09:00:00 82.9 39.3 55.7 82.9 82.9 5.1 7.2 4.5 256.3 288.6 0.00 0.1509129 78.5
2021-06-24 09:05:00 83.3 39.2 55.9 83.3 83.3 3.3 6.3 4.0 268.0 291.7 0.00 0.1556766 78.5
2021-06-24 09:10:00 83.5 35.6 53.5 83.5 83.5 6.9 7.1 4.8 302.3 292.2 0.00 0.1601783 78.5
2021-06-24 09:15:00 83.5 35.6 53.4 83.5 83.5 4.6 8.5 5.6 302.8 295.1 0.00 0.1661268 78.5
2021-06-24 09:20:00 83.8 37.8 55.4 83.8 83.8 5.1 7.6 4.9 306.8 292.4 0.00 0.1713550 78.5
2021-06-24 09:25:00 84.3 35.4 54.0 84.3 84.3 4.0 6.3 4.8 289.8 286.8 0.00 0.1761904 78.5
2021-06-24 09:30:00 84.5 36.4 54.9 84.5 84.5 6.0 7.4 4.8 276.3 278.5 0.00 0.1806149 78.5
2021-06-24 09:35:00 84.8 35.8 54.7 84.8 84.8 4.6 6.0 4.4 281.6 278.3 0.00 0.1857098 78.5
2021-06-24 09:40:00 85.0 34.2 53.6 85.0 85.0 4.7 8.5 5.7 312.4 295.9 0.00 0.1905972 78.5
2021-06-24 09:45:00 85.4 33.5 53.4 85.4 85.4 4.9 8.0 5.6 295.8 301.9 0.00 0.1949213 78.5
2021-06-24 09:50:00 85.5 33.2 53.3 85.5 85.5 3.5 7.6 5.3 260.1 287.8 0.00 0.1996265 78.6
2021-06-24 09:55:00 85.9 33.1 53.6 85.9 85.9 4.7 6.5 4.8 323.7 282.8 0.00 0.2037723 78.6
2021-06-24 10:00:00 86.4 32.2 53.3 86.4 86.4 4.4 9.4 5.5 290.1 300.3 0.00 0.2081968 78.6
2021-06-24 10:05:00 86.4 30.8 52.0 86.4 86.4 6.5 9.6 6.1 306.5 312.2 0.00 0.2127288 78.6
2021-06-24 10:10:00 86.6 32.9 54.0 86.6 86.6 4.6 9.2 5.8 303.6 315.1 0.00 0.2178357 78.6
2021-06-24 10:15:00 87.1 30.8 52.6 87.1 87.1 7.1 7.2 5.5 309.1 313.0 0.00 0.2233193 78.7
2021-06-24 10:20:00 87.3 30.2 52.2 87.3 87.3 6.0 7.2 5.6 327.5 311.0 0.00 0.2272261 78.7
2021-06-24 10:25:00 87.9 28.5 51.2 87.9 87.9 6.2 7.8 5.4 323.3 331.8 0.00 0.2306443 78.7
2021-06-24 10:30:00 88.4 28.8 51.9 88.4 88.4 5.8 7.1 5.5 320.8 320.4 0.00 0.2344891 78.7
2021-06-24 10:35:00 88.7 28.6 52.0 88.7 88.7 6.2 8.0 5.9 316.1 320.2 0.00 0.2387919 78.8
2021-06-24 10:40:00 88.6 27.7 51.0 88.6 88.6 7.4 7.4 6.0 335.8 318.8 0.00 0.2429917 78.8
2021-06-24 10:45:00 89.1 27.0 50.8 89.1 89.1 6.2 6.9 5.3 332.6 321.5 0.00 0.2467216 78.8
2021-06-24 10:50:00 89.0 28.4 52.1 89.0 89.0 6.3 9.0 6.6 337.4 350.7 0.00 0.2504039 78.8
2021-06-24 10:55:00 89.4 26.7 50.7 89.4 89.4 8.1 8.1 6.3 12.5 349.4 0.00 0.2540019 78.9
2021-06-24 11:00:00 89.4 25.5 49.5 89.4 89.4 7.2 8.0 6.4 6.3 341.1 0.00 0.2574470 78.9
2021-06-24 11:05:00 89.7 25.6 49.8 89.7 89.7 7.1 8.1 6.3 3.0 345.4 0.00 0.2604383 79.0
2021-06-24 11:10:00 89.8 25.4 49.7 89.8 89.8 6.3 8.7 6.0 307.9 318.4 0.00 0.2638884 79.0
2021-06-24 11:15:00 90.0 26.9 51.5 90.0 90.0 6.5 7.1 5.2 6.8 348.4 0.00 0.2670611 79.0
2021-06-24 11:20:00 90.2 27.7 52.4 90.2 90.2 3.7 8.0 5.5 254.1 309.4 0.00 0.2702894 79.1
2021-06-24 11:25:00 91.0 22.9 48.0 91.0 91.0 7.4 8.3 5.3 333.8 336.6 0.00 0.2720988 79.1
2021-06-24 11:30:00 90.8 23.8 48.7 90.8 90.8 6.3 6.9 4.6 330.8 309.4 0.00 0.2752905 79.2
2021-06-24 11:35:00 90.9 24.6 49.8 90.9 90.9 2.8 7.1 4.4 19.4 310.6 0.00 0.2774984 79.2
2021-06-24 11:40:00 91.1 22.1 47.2 91.1 91.1 6.3 7.6 5.6 299.1 315.7 0.00 0.2801270 79.3
2021-06-24 11:45:00 91.4 22.7 48.1 91.4 91.4 2.8 5.8 3.3 299.3 319.3 0.00 0.2837369 79.3
2021-06-24 11:50:00 91.3 20.5 45.2 91.3 91.3 4.7 9.0 5.8 340.0 340.6 0.00 0.2848434 79.4
2021-06-24 11:55:00 91.3 24.4 50.0 91.3 91.3 4.0 7.6 4.5 3.0 333.8 0.00 0.2878239 79.4
2021-06-24 12:00:00 91.1 25.0 50.4 91.1 91.1 6.2 8.0 5.5 2.8 3.7 0.00 0.2906864 79.5
2021-06-24 12:05:00 91.4 23.2 48.6 91.4 91.4 3.3 6.9 4.1 104.6 30.9 0.00 0.2924071 79.5
2021-06-24 12:10:00 91.9 22.2 47.9 91.9 91.9 7.6 8.0 4.4 334.1 6.6 0.00 0.2930850 79.5
2021-06-24 12:15:00 92.2 22.3 48.2 92.2 92.2 7.2 8.0 6.0 341.6 353.4 0.00 0.2943930 79.6
2021-06-24 12:20:00 91.9 22.4 48.1 91.9 91.9 6.2 7.8 6.1 19.9 356.8 0.00 0.2965734 79.7
2021-06-24 12:25:00 92.8 21.6 47.9 92.8 92.8 6.5 8.5 5.9 320.5 345.0 0.00 0.2987086 79.7
2021-06-24 12:30:00 92.6 22.0 48.1 92.6 92.6 8.1 8.1 5.6 336.5 356.7 0.00 0.2996109 79.8
2021-06-24 12:35:00 93.0 21.9 48.4 93.0 93.0 6.3 8.5 7.2 12.7 347.7 0.00 0.3000377 79.8
2021-06-24 12:40:00 92.8 21.1 47.2 92.8 92.8 5.8 7.6 5.7 346.3 4.9 0.00 0.3004616 79.9
2021-06-24 12:45:00 92.7 22.0 48.3 92.7 92.7 6.2 8.0 5.8 27.2 351.0 0.00 0.3013376 79.9
2021-06-24 12:50:00 92.8 21.4 47.6 92.8 92.8 5.6 8.1 5.5 0.4 346.0 0.00 0.3016756 80.0
2021-06-24 12:55:00 93.3 23.8 50.9 93.3 93.3 7.6 7.6 3.1 7.7 319.8 0.00 0.3022080 80.1
2021-06-24 13:00:00 93.4 21.2 47.9 93.4 93.4 3.3 9.2 4.6 70.3 45.6 0.00 0.3033540 80.1
2021-06-24 13:05:00 93.3 21.9 48.7 93.3 93.3 6.9 7.6 5.7 0.1 4.7 0.00 0.3035863 80.2
2021-06-24 13:10:00 93.4 23.3 50.5 93.4 93.4 7.6 7.6 4.4 20.0 16.1 0.00 0.3037668 80.2
2021-06-24 13:15:00 93.8 25.1 52.8 93.8 93.8 2.6 7.6 4.4 52.5 30.8 0.00 0.3049495 80.3
2021-06-24 13:20:00 94.5 21.4 49.0 94.5 94.5 6.7 6.7 3.6 35.4 32.9 0.00 0.3053967 80.4
2021-06-24 13:25:00 94.4 21.3 48.8 94.4 94.4 4.4 8.7 5.4 12.4 336.3 0.00 0.3044764 80.4
2021-06-24 13:30:00 94.5 20.8 48.3 94.5 94.5 4.7 8.5 6.1 6.3 15.7 0.00 0.3047490 80.5
2021-06-24 13:35:00 95.0 32.5 60.9 95.0 95.0 2.4 5.6 3.2 296.1 325.7 0.00 0.3038840 80.5
2021-06-24 13:40:00 95.8 22.5 51.5 95.8 95.8 1.3 3.1 2.0 195.9 323.7 0.00 0.3025405 80.6
2021-06-24 13:45:00 96.0 21.6 50.5 96.0 96.0 5.6 5.6 3.1 121.2 61.9 0.00 0.3022310 80.7
2021-06-24 13:50:00 94.9 21.1 49.0 94.9 94.9 4.4 9.0 5.8 156.3 153.3 0.00 0.2999304 80.7
2021-06-24 13:55:00 95.0 20.3 48.1 95.0 95.0 2.4 4.9 3.1 121.4 152.0 0.00 0.2999834 80.8
2021-06-24 14:00:00 95.0 22.4 50.6 95.0 95.0 3.3 6.9 4.4 136.5 117.0 0.00 0.2986928 80.9
2021-06-24 14:05:00 95.7 23.5 52.6 95.7 95.7 1.7 3.7 2.2 238.9 218.2 0.00 0.2982139 80.9
2021-06-24 14:10:00 96.2 21.4 50.4 96.2 96.2 3.8 6.2 3.4 256.9 219.0 0.00 0.2974411 81.0
2021-06-24 14:15:00 96.4 21.2 50.4 96.4 96.4 4.4 7.4 4.4 273.5 256.0 0.00 0.2963454 81.1
2021-06-24 14:20:00 96.3 20.8 49.8 96.3 96.3 8.1 11.7 7.2 223.4 241.9 0.00 0.2950310 81.1
2021-06-24 14:25:00 95.7 22.8 51.8 95.7 95.7 3.7 9.7 5.7 186.8 200.4 0.00 0.2915785 81.1
2021-06-24 14:30:00 95.5 19.8 47.8 95.5 95.5 5.3 7.4 4.9 197.8 192.3 0.00 0.2895101 81.2
2021-06-24 14:35:00 95.3 19.5 47.2 95.3 95.3 7.6 10.1 6.7 223.7 208.7 0.00 0.2881081 81.2
2021-06-24 14:40:00 95.3 20.1 48.0 95.3 95.3 3.1 11.9 7.3 231.9 185.1 0.00 0.2860967 81.2
2021-06-24 14:45:00 97.1 18.0 46.6 97.1 97.1 3.8 9.7 4.6 268.8 275.1 0.00 0.2838553 81.3
2021-06-24 14:50:00 96.8 22.7 52.6 96.8 96.8 5.8 10.3 5.6 239.8 238.2 0.00 0.2814428 81.3
2021-06-24 14:55:00 96.0 20.1 48.6 96.0 96.0 4.7 10.8 7.3 231.1 241.0 0.00 0.2801096 81.3
2021-06-24 15:00:00 95.9 21.4 50.3 95.9 95.9 2.6 11.2 6.5 268.7 216.9 0.00 0.2797895 81.4
2021-06-24 15:05:00 96.4 20.8 49.8 96.4 96.4 7.6 7.6 4.6 257.7 236.0 0.00 0.2760367 81.4
2021-06-24 15:10:00 96.2 22.3 51.5 96.2 96.2 11.0 15.8 7.7 228.2 225.5 0.00 0.2722130 81.4
2021-06-24 15:15:00 96.4 20.0 48.7 96.4 96.4 5.8 11.9 7.1 242.4 238.4 0.00 0.2695500 81.5
2021-06-24 15:20:00 95.4 20.2 48.3 95.4 95.4 3.3 10.5 5.9 223.8 218.3 0.00 0.1811048 81.5
2021-06-24 15:25:00 96.4 20.3 49.2 96.4 96.4 3.3 5.8 4.3 276.6 265.8 0.00 0.2713305 81.6
2021-06-24 15:30:00 96.7 20.7 49.9 96.7 96.7 5.1 9.4 6.2 285.2 261.7 0.00 0.2600576 81.6
2021-06-24 15:35:00 95.8 20.3 48.7 95.8 95.8 4.4 8.3 4.6 265.5 215.8 0.00 0.1071987 81.6
2021-06-24 15:40:00 95.4 22.5 51.1 95.4 95.4 1.9 4.2 3.0 273.4 256.5 0.00 0.1301402 81.7
2021-06-24 15:45:00 96.7 20.0 49.0 96.7 96.7 6.7 8.7 3.2 249.0 255.9 0.00 0.2661913 81.7
2021-06-24 15:50:00 95.5 22.2 50.8 95.5 95.5 4.2 10.1 6.7 260.5 226.6 0.00 0.1407109 81.7
2021-06-24 15:55:00 95.7 24.0 53.2 95.7 95.7 2.4 7.6 4.2 10.1 251.6 0.00 0.2313434 81.8
2021-06-24 16:00:00 96.6 20.2 49.2 96.6 96.6 3.1 6.3 4.4 251.6 231.4 0.00 0.2442045 81.8
2021-06-24 16:05:00 97.3 19.5 48.8 97.3 97.3 5.1 8.3 6.0 265.2 264.1 0.00 0.2380183 81.8
2021-06-24 16:10:00 97.5 22.7 53.1 97.5 97.5 4.7 7.6 5.3 210.7 246.3 0.00 0.2225522 81.8
2021-06-24 16:15:00 96.8 23.2 53.2 96.8 96.8 4.9 9.7 4.8 239.3 229.4 0.00 0.2286079 81.9
2021-06-24 16:20:00 97.4 21.0 51.0 97.4 97.4 3.1 6.9 3.7 254.5 272.5 0.00 0.2252884 81.9
2021-06-24 16:25:00 97.5 20.4 50.2 97.5 97.5 8.1 10.8 6.1 298.0 261.1 0.00 0.2228616 81.9
2021-06-24 16:30:00 97.3 19.5 48.8 97.3 97.3 4.4 9.6 5.1 290.0 246.7 0.00 0.2199901 81.9
2021-06-24 16:35:00 97.4 23.0 53.4 97.4 97.4 4.7 7.6 4.7 305.5 244.0 0.00 0.2161317 82.0
2021-06-24 16:40:00 97.7 19.9 49.7 97.7 97.7 9.0 12.1 6.4 285.9 270.3 0.00 0.2104929 82.0
2021-06-24 16:45:00 98.0 20.5 50.8 98.0 98.0 6.7 11.0 8.1 289.1 292.1 0.00 0.2091131 82.0
2021-06-24 16:50:00 97.9 22.7 53.5 97.9 97.9 4.7 11.2 6.3 224.4 284.1 0.00 0.1819504 82.0
2021-06-24 16:55:00 96.0 21.3 50.3 96.0 96.0 5.1 10.6 6.8 291.6 256.8 0.00 0.1413115 82.0
2021-06-24 17:00:00 97.7 20.1 50.0 97.7 97.7 6.3 6.3 4.0 270.1 281.0 0.00 0.1877502 82.0
2021-06-24 17:05:00 97.5 19.8 49.4 97.5 97.5 3.5 10.6 6.9 270.3 275.4 0.00 0.1837954 82.0
2021-06-24 17:10:00 97.8 21.8 52.3 97.8 97.8 3.0 7.2 4.2 279.0 260.2 0.00 0.1780526 82.1
2021-06-24 17:15:00 96.9 20.4 49.7 96.9 96.9 5.6 7.4 4.8 256.8 242.0 0.00 0.1692401 82.1
2021-06-24 17:20:00 97.0 21.7 51.4 97.0 97.0 4.9 9.7 5.6 287.1 258.5 0.00 0.1622550 82.1
2021-06-24 17:25:00 96.9 21.7 51.4 96.9 96.9 4.0 9.7 6.3 289.3 270.5 0.00 0.1566037 82.1
2021-06-24 17:30:00 97.4 21.7 51.8 97.4 97.4 4.6 6.7 4.2 295.1 270.7 0.00 0.1509673 82.1
2021-06-24 17:35:00 97.0 22.1 51.9 97.0 97.0 6.5 10.3 6.5 269.9 266.6 0.00 0.1444780 82.1
2021-06-24 17:40:00 96.8 22.7 52.6 96.8 96.8 4.4 9.9 6.2 261.1 266.9 0.00 0.1415945 82.1
2021-06-24 17:45:00 96.4 22.3 51.7 96.4 96.4 6.2 11.0 6.7 234.0 245.2 0.00 0.1348791 82.1
2021-06-24 17:50:00 97.1 22.6 52.7 97.1 97.1 6.0 10.3 6.8 276.7 281.9 0.00 0.1319594 82.2
2021-06-24 17:55:00 97.3 20.5 50.2 97.3 97.3 5.5 11.9 7.8 274.7 303.5 0.00 0.1309520 82.2
2021-06-24 18:00:00 96.8 22.2 51.9 96.8 96.8 4.7 9.0 5.6 241.9 263.4 0.00 0.1241102 82.2
2021-06-24 18:05:00 96.4 22.7 52.2 96.4 96.4 5.1 6.5 4.7 263.8 264.7 0.00 0.1166237 82.2
2021-06-24 18:10:00 96.3 22.6 52.0 96.3 96.3 5.1 8.5 5.8 267.7 268.3 0.00 0.1120207 82.2
2021-06-24 18:15:00 96.3 24.0 53.7 96.3 96.3 5.3 9.7 6.1 300.1 272.5 0.00 0.1105435 82.2
2021-06-24 18:20:00 96.6 23.4 53.2 96.6 96.6 6.7 9.4 6.8 265.4 286.3 0.00 0.1035366 82.2
2021-06-24 18:25:00 96.2 22.7 52.1 96.2 96.2 5.5 10.1 7.0 245.9 282.9 0.00 0.0953738 82.2
2021-06-24 18:30:00 96.6 22.6 52.3 96.6 96.6 7.1 8.1 5.8 307.7 293.5 0.00 0.0900354 82.2
2021-06-24 18:35:00 96.4 22.4 51.8 96.4 96.4 6.9 9.2 6.4 250.1 281.2 0.00 0.0866405 82.2
2021-06-24 18:40:00 95.7 22.5 51.3 95.7 95.7 9.2 12.4 7.8 343.8 271.5 0.00 0.0799036 82.2
2021-06-24 18:45:00 95.7 22.3 51.1 95.7 95.7 7.1 12.8 7.6 271.9 292.0 0.00 0.0733162 82.2
2021-06-24 18:50:00 95.1 23.6 52.2 95.1 95.1 5.5 11.3 7.0 251.5 273.3 0.00 0.0675487 82.2
2021-06-24 18:55:00 95.5 23.3 52.2 95.5 95.5 3.5 9.0 5.7 272.4 300.8 0.00 0.0639893 82.2
2021-06-24 19:00:00 95.2 23.9 52.6 95.2 95.2 6.5 12.2 6.8 277.8 296.9 0.00 0.0591573 82.2
2021-06-24 19:05:00 94.8 23.0 51.2 94.8 94.8 9.2 9.2 5.8 310.7 296.4 0.00 0.0543204 82.2
2021-06-24 19:10:00 94.6 24.4 52.7 94.6 94.6 5.8 7.6 5.4 318.9 303.3 0.00 0.0499041 82.2

Data is courtesy of the NM Climate Center. DO NOT USE IN LEGAL PROCEEDINGS.